sensor_id;sensor_type;location;lat;lon;timestamp;pressure;altitude;pressure_sealevel;temperature;humidity
69239;BME280;56349;51.816;-0.026;2022-09-02T00:01:52;101146.38;;;26.57;32.44
69239;BME280;56349;51.816;-0.026;2022-09-02T00:04:20;101143.13;;;26.76;32.48
69239;BME280;56349;51.816;-0.026;2022-09-02T00:06:44;101140.48;;;26.71;32.53
69239;BME280;56349;51.816;-0.026;2022-09-02T00:09:10;101136.01;;;26.68;32.57
69239;BME280;56349;51.816;-0.026;2022-09-02T00:11:36;101133.00;;;26.65;32.61
69239;BME280;56349;51.816;-0.026;2022-09-02T00:14:03;101132.02;;;26.63;32.63
69239;BME280;56349;51.816;-0.026;2022-09-02T00:16:25;101130.54;;;26.84;32.64
69239;BME280;56349;51.816;-0.026;2022-09-02T00:18:51;101128.88;;;26.82;32.66
69239;BME280;56349;51.816;-0.026;2022-09-02T00:21:16;101128.28;;;26.33;32.71
69239;BME280;56349;51.816;-0.026;2022-09-02T00:23:42;101126.02;;;26.76;32.74
69239;BME280;56349;51.816;-0.026;2022-09-02T00:26:07;101124.43;;;26.74;32.76
69239;BME280;56349;51.816;-0.026;2022-09-02T00:28:32;101120.11;;;26.71;32.78
69239;BME280;56349;51.816;-0.026;2022-09-02T00:30:57;101119.07;;;26.69;32.81
69239;BME280;56349;51.816;-0.026;2022-09-02T00:33:22;101117.15;;;26.43;32.85
69239;BME280;56349;51.816;-0.026;2022-09-02T00:35:47;101116.55;;;26.44;32.83
69239;BME280;56349;51.816;-0.026;2022-09-02T00:38:13;101110.18;;;26.44;32.83
69239;BME280;56349;51.816;-0.026;2022-09-02T00:40:43;101105.98;;;26.41;32.84
69239;BME280;56349;51.816;-0.026;2022-09-02T00:43:06;101106.00;;;26.15;32.90
69239;BME280;56349;51.816;-0.026;2022-09-02T00:45:30;101104.25;;;26.36;32.91
69239;BME280;56349;51.816;-0.026;2022-09-02T00:47:55;101099.90;;;26.55;32.94
69239;BME280;56349;51.816;-0.026;2022-09-02T00:50:23;101098.65;;;26.30;32.97
69239;BME280;56349;51.816;-0.026;2022-09-02T00:52:49;101096.00;;;26.28;32.99
69239;BME280;56349;51.816;-0.026;2022-09-02T00:55:15;101095.29;;;26.27;33.00
69239;BME280;56349;51.816;-0.026;2022-09-02T00:57:42;101095.92;;;26.46;33.03
69239;BME280;56349;51.816;-0.026;2022-09-02T01:00:08;101096.86;;;26.01;33.03
69239;BME280;56349;51.816;-0.026;2022-09-02T01:02:29;101095.01;;;26.45;33.05
69239;BME280;56349;51.816;-0.026;2022-09-02T01:04:53;101089.56;;;26.20;33.07
69239;BME280;56349;51.816;-0.026;2022-09-02T01:07:18;101086.56;;;26.18;33.08
69239;BME280;56349;51.816;-0.026;2022-09-02T01:09:43;101082.95;;;26.42;33.08
69239;BME280;56349;51.816;-0.026;2022-09-02T01:12:08;101082.54;;;26.41;33.08
69239;BME280;56349;51.816;-0.026;2022-09-02T01:14:34;101079.59;;;26.17;33.10
69239;BME280;56349;51.816;-0.026;2022-09-02T01:17:00;101077.55;;;26.14;33.12
69239;BME280;56349;51.816;-0.026;2022-09-02T01:19:27;101075.94;;;26.12;33.14
69239;BME280;56349;51.816;-0.026;2022-09-02T01:21:51;101072.56;;;26.33;33.15
69239;BME280;56349;51.816;-0.026;2022-09-02T01:24:16;101071.19;;;26.32;33.15
69239;BME280;56349;51.816;-0.026;2022-09-02T01:26:41;101068.36;;;26.09;33.17
69239;BME280;56349;51.816;-0.026;2022-09-02T01:29:07;101067.02;;;26.09;33.16
69239;BME280;56349;51.816;-0.026;2022-09-02T01:31:32;101063.70;;;26.09;33.15
69239;BME280;56349;51.816;-0.026;2022-09-02T01:33:57;101062.86;;;26.29;33.17
69239;BME280;56349;51.816;-0.026;2022-09-02T01:36:28;101058.93;;;26.27;33.18
69239;BME280;56349;51.816;-0.026;2022-09-02T01:38:48;101059.50;;;26.54;33.18
69239;BME280;56349;51.816;-0.026;2022-09-02T01:41:13;101057.57;;;26.25;33.20
69239;BME280;56349;51.816;-0.026;2022-09-02T01:43:38;101052.96;;;26.25;33.20
69239;BME280;56349;51.816;-0.026;2022-09-02T01:46:04;101051.42;;;26.21;33.23
69239;BME280;56349;51.816;-0.026;2022-09-02T01:48:29;101045.17;;;26.21;33.23
69239;BME280;56349;51.816;-0.026;2022-09-02T01:50:57;101040.68;;;25.96;33.25
69239;BME280;56349;51.816;-0.026;2022-09-02T01:53:20;101038.60;;;25.94;33.27
69239;BME280;56349;51.816;-0.026;2022-09-02T01:55:46;101030.04;;;26.16;33.26
69239;BME280;56349;51.816;-0.026;2022-09-02T01:58:11;101026.11;;;26.15;33.27
69239;BME280;56349;51.816;-0.026;2022-09-02T02:00:36;101022.97;;;25.94;33.26
69239;BME280;56349;51.816;-0.026;2022-09-02T02:03:02;101020.13;;;25.93;33.26
69239;BME280;56349;51.816;-0.026;2022-09-02T02:05:28;101016.74;;;26.13;33.28
69239;BME280;56349;51.816;-0.026;2022-09-02T02:07:58;101016.48;;;25.89;33.29
69239;BME280;56349;51.816;-0.026;2022-09-02T02:10:20;101016.33;;;26.36;33.32
69239;BME280;56349;51.816;-0.026;2022-09-02T02:12:44;101015.74;;;26.07;33.35
69239;BME280;56349;51.816;-0.026;2022-09-02T02:15:12;101013.78;;;26.06;33.36
69239;BME280;56349;51.816;-0.026;2022-09-02T02:17:35;101009.47;;;26.07;33.35
69239;BME280;56349;51.816;-0.026;2022-09-02T02:20:01;101005.75;;;26.06;33.34
69239;BME280;56349;51.816;-0.026;2022-09-02T02:22:26;101006.58;;;26.05;33.36
69239;BME280;56349;51.816;-0.026;2022-09-02T02:24:52;101001.82;;;25.82;33.36
69239;BME280;56349;51.816;-0.026;2022-09-02T02:27:17;100998.92;;;26.03;33.37
69239;BME280;56349;51.816;-0.026;2022-09-02T02:29:42;100995.65;;;26.29;33.38
69239;BME280;56349;51.816;-0.026;2022-09-02T02:32:08;100992.16;;;26.03;33.36
69239;BME280;56349;51.816;-0.026;2022-09-02T02:34:34;100995.93;;;26.02;33.37
69239;BME280;56349;51.816;-0.026;2022-09-02T02:36:59;100994.81;;;26.00;33.38
69239;BME280;56349;51.816;-0.026;2022-09-02T02:39:24;100991.81;;;26.27;33.37
69239;BME280;56349;51.816;-0.026;2022-09-02T02:41:50;100989.47;;;26.00;33.37
69239;BME280;56349;51.816;-0.026;2022-09-02T02:44:15;100985.11;;;25.98;33.39
69239;BME280;56349;51.816;-0.026;2022-09-02T02:46:40;100982.83;;;25.97;33.39
69239;BME280;56349;51.816;-0.026;2022-09-02T02:49:05;100979.84;;;25.96;33.40
69239;BME280;56349;51.816;-0.026;2022-09-02T02:51:31;100975.19;;;26.23;33.38
69239;BME280;56349;51.816;-0.026;2022-09-02T02:53:56;100974.40;;;25.74;33.39
69239;BME280;56349;51.816;-0.026;2022-09-02T02:56:21;100975.27;;;26.23;33.39
69239;BME280;56349;51.816;-0.026;2022-09-02T02:58:46;100976.69;;;25.95;33.38
69239;BME280;56349;51.816;-0.026;2022-09-02T03:01:12;100977.05;;;25.93;33.41
69239;BME280;56349;51.816;-0.026;2022-09-02T03:03:37;100979.57;;;26.17;33.43
69239;BME280;56349;51.816;-0.026;2022-09-02T03:06:02;100982.81;;;26.15;33.44
69239;BME280;56349;51.816;-0.026;2022-09-02T03:08:28;100983.29;;;26.15;33.45
69239;BME280;56349;51.816;-0.026;2022-09-02T03:10:54;100985.45;;;26.14;33.45
69239;BME280;56349;51.816;-0.026;2022-09-02T03:13:20;100985.15;;;25.86;33.46
69239;BME280;56349;51.816;-0.026;2022-09-02T03:15:45;100980.01;;;25.63;33.46
69239;BME280;56349;51.816;-0.026;2022-09-02T03:18:11;100976.39;;;25.83;33.47
69239;BME280;56349;51.816;-0.026;2022-09-02T03:20:38;100971.64;;;25.82;33.48
69239;BME280;56349;51.816;-0.026;2022-09-02T03:23:02;100967.42;;;25.83;33.47
69239;BME280;56349;51.816;-0.026;2022-09-02T03:25:29;100963.09;;;26.10;33.46
69239;BME280;56349;51.816;-0.026;2022-09-02T03:27:54;100958.45;;;25.85;33.44
69239;BME280;56349;51.816;-0.026;2022-09-02T03:30:23;100957.44;;;26.11;33.45
69239;BME280;56349;51.816;-0.026;2022-09-02T03:32:44;100956.46;;;26.12;33.46
69239;BME280;56349;51.816;-0.026;2022-09-02T03:35:13;100954.80;;;25.86;33.50
69239;BME280;56349;51.816;-0.026;2022-09-02T03:37:36;100954.35;;;26.15;33.54
69239;BME280;56349;51.816;-0.026;2022-09-02T03:40:02;100953.29;;;25.94;33.55
69239;BME280;56349;51.816;-0.026;2022-09-02T03:42:27;100950.94;;;25.80;33.54
69239;BME280;56349;51.816;-0.026;2022-09-02T03:44:53;100949.47;;;26.12;33.49
69239;BME280;56349;51.816;-0.026;2022-09-02T03:47:18;100949.20;;;26.02;33.44
69239;BME280;56349;51.816;-0.026;2022-09-02T03:49:43;100942.77;;;26.16;33.30
69239;BME280;56349;51.816;-0.026;2022-09-02T03:52:08;100938.56;;;26.31;33.15
69239;BME280;56349;51.816;-0.026;2022-09-02T03:54:33;100933.51;;;26.21;32.98
69239;BME280;56349;51.816;-0.026;2022-09-02T03:56:58;100933.82;;;26.31;32.84
69239;BME280;56349;51.816;-0.026;2022-09-02T03:59:23;100931.83;;;26.38;32.69
69239;BME280;56349;51.816;-0.026;2022-09-02T04:01:49;100927.66;;;26.67;32.54
69239;BME280;56349;51.816;-0.026;2022-09-02T04:04:14;100922.19;;;26.68;32.47
69239;BME280;56349;51.816;-0.026;2022-09-02T04:06:39;100920.90;;;26.48;32.39
69239;BME280;56349;51.816;-0.026;2022-09-02T04:09:05;100918.45;;;26.47;32.34
69239;BME280;56349;51.816;-0.026;2022-09-02T04:11:30;100918.10;;;26.65;32.32
69239;BME280;56349;51.816;-0.026;2022-09-02T04:13:55;100917.98;;;26.39;32.31
69239;BME280;56349;51.816;-0.026;2022-09-02T04:16:23;100918.16;;;26.57;32.32
69239;BME280;56349;51.816;-0.026;2022-09-02T04:18:46;100915.98;;;26.53;32.33
69239;BME280;56349;51.816;-0.026;2022-09-02T04:21:12;100915.48;;;26.48;32.35
69239;BME280;56349;51.816;-0.026;2022-09-02T04:23:37;100912.45;;;26.43;32.37
69239;BME280;56349;51.816;-0.026;2022-09-02T04:26:04;100908.40;;;26.36;32.41
69239;BME280;56349;51.816;-0.026;2022-09-02T04:28:28;100908.65;;;26.31;32.45
69239;BME280;56349;51.816;-0.026;2022-09-02T04:30:53;100907.23;;;26.27;32.49
69239;BME280;56349;51.816;-0.026;2022-09-02T04:33:18;100907.42;;;26.45;32.52
69239;BME280;56349;51.816;-0.026;2022-09-02T04:35:45;100905.95;;;26.40;32.54
69239;BME280;56349;51.816;-0.026;2022-09-02T04:38:09;100903.81;;;26.15;32.57
69239;BME280;56349;51.816;-0.026;2022-09-02T04:40:34;100902.36;;;26.31;32.63
69239;BME280;56349;51.816;-0.026;2022-09-02T04:42:59;100902.09;;;26.53;32.67
69239;BME280;56349;51.816;-0.026;2022-09-02T04:45:25;100901.58;;;25.98;32.72
69239;BME280;56349;51.816;-0.026;2022-09-02T04:47:50;100898.10;;;26.17;32.75
69239;BME280;56349;51.816;-0.026;2022-09-02T04:50:16;100895.13;;;26.13;32.79
69239;BME280;56349;51.816;-0.026;2022-09-02T04:52:41;100893.83;;;26.09;32.82
69239;BME280;56349;51.816;-0.026;2022-09-02T04:55:06;100894.95;;;25.86;32.83
69239;BME280;56349;51.816;-0.026;2022-09-02T04:57:32;100894.48;;;26.05;32.86
69239;BME280;56349;51.816;-0.026;2022-09-02T04:59:57;100895.28;;;26.03;32.88
69239;BME280;56349;51.816;-0.026;2022-09-02T05:02:22;100896.69;;;25.99;32.92
69239;BME280;56349;51.816;-0.026;2022-09-02T05:04:47;100896.87;;;25.96;32.95
69239;BME280;56349;51.816;-0.026;2022-09-02T05:07:12;100899.06;;;25.93;32.97
69239;BME280;56349;51.816;-0.026;2022-09-02T05:09:37;100896.74;;;25.70;32.99
69239;BME280;56349;51.816;-0.026;2022-09-02T05:12:04;100893.05;;;25.90;33.05
69239;BME280;56349;51.816;-0.026;2022-09-02T05:14:28;100892.00;;;25.88;33.02
69239;BME280;56349;51.816;-0.026;2022-09-02T05:16:53;100891.69;;;25.84;33.06
69239;BME280;56349;51.816;-0.026;2022-09-02T05:19:20;100895.90;;;25.82;33.09
69239;BME280;56349;51.816;-0.026;2022-09-02T05:21:44;100899.16;;;26.06;33.11
69239;BME280;56349;51.816;-0.026;2022-09-02T05:24:09;100899.91;;;25.78;33.12
69239;BME280;56349;51.816;-0.026;2022-09-02T05:26:35;100901.27;;;25.76;33.14
69239;BME280;56349;51.816;-0.026;2022-09-02T05:29:00;100900.38;;;25.75;33.16
69239;BME280;56349;51.816;-0.026;2022-09-02T05:31:25;100895.68;;;25.73;33.16
69239;BME280;56349;51.816;-0.026;2022-09-02T05:33:50;100892.40;;;25.71;33.17
69239;BME280;56349;51.816;-0.026;2022-09-02T05:36:19;100890.41;;;25.69;33.20
69239;BME280;56349;51.816;-0.026;2022-09-02T05:38:43;100889.28;;;25.71;33.18
69239;BME280;56349;51.816;-0.026;2022-09-02T05:41:11;100887.80;;;25.68;33.21
69239;BME280;56349;51.816;-0.026;2022-09-02T05:43:35;100887.28;;;25.68;33.22
69239;BME280;56349;51.816;-0.026;2022-09-02T05:46:03;100885.63;;;25.67;33.23
69239;BME280;56349;51.816;-0.026;2022-09-02T05:48:26;100886.36;;;25.67;33.23
69239;BME280;56349;51.816;-0.026;2022-09-02T05:50:52;100880.62;;;25.91;33.26
69239;BME280;56349;51.816;-0.026;2022-09-02T05:53:17;100875.63;;;25.63;33.28
69239;BME280;56349;51.816;-0.026;2022-09-02T05:55:42;100874.35;;;25.86;33.31
69239;BME280;56349;51.816;-0.026;2022-09-02T05:58:07;100874.66;;;25.84;33.34
69239;BME280;56349;51.816;-0.026;2022-09-02T06:00:33;100875.38;;;25.57;33.34
69239;BME280;56349;51.816;-0.026;2022-09-02T06:02:58;100871.90;;;25.83;33.36
69239;BME280;56349;51.816;-0.026;2022-09-02T06:05:24;100870.53;;;25.82;33.36
69239;BME280;56349;51.816;-0.026;2022-09-02T06:07:49;100870.93;;;25.81;33.37
69239;BME280;56349;51.816;-0.026;2022-09-02T06:10:14;100869.05;;;25.81;33.38
69239;BME280;56349;51.816;-0.026;2022-09-02T06:12:39;100867.89;;;25.80;33.38
69239;BME280;56349;51.816;-0.026;2022-09-02T06:15:05;100869.43;;;25.52;33.40
69239;BME280;56349;51.816;-0.026;2022-09-02T06:17:30;100869.71;;;25.54;33.39
69239;BME280;56349;51.816;-0.026;2022-09-02T06:19:55;100872.60;;;25.80;33.38
69239;BME280;56349;51.816;-0.026;2022-09-02T06:22:22;100869.57;;;25.79;33.40
69239;BME280;56349;51.816;-0.026;2022-09-02T06:24:47;100864.45;;;25.78;33.41
69239;BME280;56349;51.816;-0.026;2022-09-02T06:27:12;100859.49;;;25.49;33.44
69239;BME280;56349;51.816;-0.026;2022-09-02T06:29:37;100860.78;;;25.48;33.44
69239;BME280;56349;51.816;-0.026;2022-09-02T06:32:02;100858.49;;;25.76;33.44
69239;BME280;56349;51.816;-0.026;2022-09-02T06:34:27;100854.06;;;25.49;33.44
69239;BME280;56349;51.816;-0.026;2022-09-02T06:36:53;100856.27;;;25.48;33.45
69239;BME280;56349;51.816;-0.026;2022-09-02T06:39:20;100853.20;;;25.48;33.52
69239;BME280;56349;51.816;-0.026;2022-09-02T06:41:45;100854.91;;;25.75;33.67
69239;BME280;56349;51.816;-0.026;2022-09-02T06:44:11;100850.35;;;25.75;33.85
69239;BME280;56349;51.816;-0.026;2022-09-02T06:46:37;100843.86;;;25.86;33.99
69239;BME280;56349;51.816;-0.026;2022-09-02T06:49:01;100845.16;;;25.98;34.00
69239;BME280;56349;51.816;-0.026;2022-09-02T06:51:28;100842.41;;;25.81;34.32
69239;BME280;56349;51.816;-0.026;2022-09-02T06:53:52;100841.38;;;26.16;34.63
69239;BME280;56349;51.816;-0.026;2022-09-02T06:56:17;100842.47;;;25.77;34.92
69239;BME280;56349;51.816;-0.026;2022-09-02T06:58:43;100843.36;;;25.90;35.02
69239;BME280;56349;51.816;-0.026;2022-09-02T07:01:08;100843.67;;;26.07;35.10
69239;BME280;56349;51.816;-0.026;2022-09-02T07:03:33;100846.11;;;26.23;35.19
69239;BME280;56349;51.816;-0.026;2022-09-02T07:06:02;100851.05;;;26.31;35.28
69239;BME280;56349;51.816;-0.026;2022-09-02T07:08:24;100856.26;;;26.40;35.32
69239;BME280;56349;51.816;-0.026;2022-09-02T07:10:49;100859.55;;;26.55;35.28
69239;BME280;56349;51.816;-0.026;2022-09-02T07:13:14;100859.48;;;26.19;35.20
69239;BME280;56349;51.816;-0.026;2022-09-02T07:15:40;100858.74;;;26.37;35.03
69239;BME280;56349;51.816;-0.026;2022-09-02T07:18:05;100857.96;;;26.55;34.84
69239;BME280;56349;51.816;-0.026;2022-09-02T07:20:30;100855.33;;;26.74;34.62
69239;BME280;56349;51.816;-0.026;2022-09-02T07:22:55;100849.36;;;26.95;34.43
69239;BME280;56349;51.816;-0.026;2022-09-02T07:25:21;100844.94;;;26.95;34.21
69239;BME280;56349;51.816;-0.026;2022-09-02T07:27:46;100843.72;;;27.15;33.92
69239;BME280;56349;51.816;-0.026;2022-09-02T07:30:12;100844.15;;;27.34;33.66
69239;BME280;56349;51.816;-0.026;2022-09-02T07:32:37;100839.21;;;27.51;33.43
69239;BME280;56349;51.816;-0.026;2022-09-02T07:35:02;100833.40;;;27.41;33.17
69239;BME280;56349;51.816;-0.026;2022-09-02T07:37:27;100831.21;;;27.53;32.94
69239;BME280;56349;51.816;-0.026;2022-09-02T07:39:53;100828.72;;;27.43;32.77
69239;BME280;56349;51.816;-0.026;2022-09-02T07:42:18;100826.62;;;27.55;32.60
69239;BME280;56349;51.816;-0.026;2022-09-02T07:44:43;100824.61;;;27.89;32.44
69239;BME280;56349;51.816;-0.026;2022-09-02T07:47:08;100821.02;;;28.02;32.27
69239;BME280;56349;51.816;-0.026;2022-09-02T07:49:33;100820.81;;;27.93;32.10
69239;BME280;56349;51.816;-0.026;2022-09-02T07:51:59;100821.29;;;28.29;31.91
69239;BME280;56349;51.816;-0.026;2022-09-02T07:54:25;100821.54;;;28.15;31.75
69239;BME280;56349;51.816;-0.026;2022-09-02T07:56:50;100819.07;;;28.25;31.60
69239;BME280;56349;51.816;-0.026;2022-09-02T07:59:15;100817.63;;;28.37;31.54
69239;BME280;56349;51.816;-0.026;2022-09-02T08:01:40;100816.44;;;28.47;31.38
69239;BME280;56349;51.816;-0.026;2022-09-02T08:04:06;100816.07;;;28.38;31.25
69239;BME280;56349;51.816;-0.026;2022-09-02T08:06:31;100817.91;;;28.51;31.14
69239;BME280;56349;51.816;-0.026;2022-09-02T08:08:57;100815.40;;;28.62;30.98
69239;BME280;56349;51.816;-0.026;2022-09-02T08:11:22;100813.44;;;28.69;30.94
69239;BME280;56349;51.816;-0.026;2022-09-02T08:13:48;100810.37;;;28.74;30.87
69239;BME280;56349;51.816;-0.026;2022-09-02T08:16:13;100809.08;;;28.77;30.89
69239;BME280;56349;51.816;-0.026;2022-09-02T08:18:38;100807.27;;;28.76;30.86
69239;BME280;56349;51.816;-0.026;2022-09-02T08:21:03;100808.38;;;28.71;30.93
69239;BME280;56349;51.816;-0.026;2022-09-02T08:23:29;100805.75;;;28.66;30.99
69239;BME280;56349;51.816;-0.026;2022-09-02T08:25:54;100804.40;;;28.34;31.07
69239;BME280;56349;51.816;-0.026;2022-09-02T08:28:19;100804.68;;;28.61;31.02
69239;BME280;56349;51.816;-0.026;2022-09-02T08:30:44;100804.77;;;28.62;30.71
69239;BME280;56349;51.816;-0.026;2022-09-02T08:33:11;100799.43;;;28.67;30.46
69239;BME280;56349;51.816;-0.026;2022-09-02T08:35:37;100800.23;;;28.70;30.33
69239;BME280;56349;51.816;-0.026;2022-09-02T08:38:01;100799.41;;;28.46;30.27
69239;BME280;56349;51.816;-0.026;2022-09-02T08:40:33;100799.64;;;28.75;30.22
69239;BME280;56349;51.816;-0.026;2022-09-02T08:42:54;100797.82;;;28.77;30.19
69239;BME280;56349;51.816;-0.026;2022-09-02T08:45:21;100800.70;;;28.53;30.12
69239;BME280;56349;51.816;-0.026;2022-09-02T08:47:52;100799.27;;;28.83;30.06
69239;BME280;56349;51.816;-0.026;2022-09-02T08:50:12;100798.65;;;28.59;30.00
69239;BME280;56349;51.816;-0.026;2022-09-02T08:52:39;100799.63;;;28.62;29.92
69239;BME280;56349;51.816;-0.026;2022-09-02T08:55:01;100798.13;;;28.63;29.88
69239;BME280;56349;51.816;-0.026;2022-09-02T08:57:26;100795.90;;;28.63;29.83
69239;BME280;56349;51.816;-0.026;2022-09-02T08:59:52;100797.02;;;28.91;29.81
69239;BME280;56349;51.816;-0.026;2022-09-02T09:02:24;100798.09;;;28.95;29.73
69239;BME280;56349;51.816;-0.026;2022-09-02T09:04:54;100797.49;;;28.96;29.67
69239;BME280;56349;51.816;-0.026;2022-09-02T09:07:19;100792.18;;;28.71;29.62
69239;BME280;56349;51.816;-0.026;2022-09-02T09:09:42;100791.15;;;29.00;29.56
69239;BME280;56349;51.816;-0.026;2022-09-02T09:12:05;100788.27;;;28.53;29.51
69239;BME280;56349;51.816;-0.026;2022-09-02T09:14:29;100787.24;;;28.76;29.47
69239;BME280;56349;51.816;-0.026;2022-09-02T09:16:57;100786.73;;;28.77;29.44
69239;BME280;56349;51.816;-0.026;2022-09-02T09:19:23;100786.73;;;28.73;29.43
69239;BME280;56349;51.816;-0.026;2022-09-02T09:21:43;100785.85;;;28.65;29.42
69239;BME280;56349;51.816;-0.026;2022-09-02T09:24:17;100785.29;;;28.84;29.40
69239;BME280;56349;51.816;-0.026;2022-09-02T09:26:38;100783.42;;;28.71;29.40
69239;BME280;56349;51.816;-0.026;2022-09-02T09:29:03;100784.77;;;28.58;29.43
69239;BME280;56349;51.816;-0.026;2022-09-02T09:31:29;100786.22;;;28.43;29.49
69239;BME280;56349;51.816;-0.026;2022-09-02T09:33:55;100785.58;;;28.28;29.60
69239;BME280;56349;51.816;-0.026;2022-09-02T09:36:17;100787.14;;;28.60;29.74
69239;BME280;56349;51.816;-0.026;2022-09-02T09:38:42;100785.77;;;28.27;29.86
69239;BME280;56349;51.816;-0.026;2022-09-02T09:41:13;100783.54;;;28.00;29.96
69239;BME280;56349;51.816;-0.026;2022-09-02T09:43:33;100785.03;;;28.44;30.00
69239;BME280;56349;51.816;-0.026;2022-09-02T09:48:24;100779.32;;;28.23;30.05
69239;BME280;56349;51.816;-0.026;2022-09-02T09:53:17;100777.53;;;28.53;30.01
69239;BME280;56349;51.816;-0.026;2022-09-02T09:58:08;100773.51;;;28.17;29.94
69239;BME280;56349;51.816;-0.026;2022-09-02T10:00:32;100770.00;;;28.45;29.90
69239;BME280;56349;51.816;-0.026;2022-09-02T10:02:59;100766.15;;;28.28;29.85
69239;BME280;56349;51.816;-0.026;2022-09-02T10:05:29;100762.47;;;28.32;29.79
69239;BME280;56349;51.816;-0.026;2022-09-02T10:07:53;100757.45;;;28.40;29.73
69239;BME280;56349;51.816;-0.026;2022-09-02T10:10:16;100756.29;;;28.45;29.67
69239;BME280;56349;51.816;-0.026;2022-09-02T10:12:39;100754.56;;;28.96;29.63
69239;BME280;56349;51.816;-0.026;2022-09-02T10:15:05;100753.28;;;28.61;29.57
69239;BME280;56349;51.816;-0.026;2022-09-02T10:17:36;100751.70;;;28.92;29.47
69239;BME280;56349;51.816;-0.026;2022-09-02T10:19:59;100751.43;;;28.78;29.40
69239;BME280;56349;51.816;-0.026;2022-09-02T10:24:59;100744.24;;;28.90;29.28
69239;BME280;56349;51.816;-0.026;2022-09-02T10:27:15;100744.25;;;28.67;29.23
69239;BME280;56349;51.816;-0.026;2022-09-02T10:29:48;100737.63;;;28.96;29.19
69239;BME280;56349;51.816;-0.026;2022-09-02T10:32:14;100735.96;;;28.99;29.18
69239;BME280;56349;51.816;-0.026;2022-09-02T10:34:35;100734.72;;;29.01;29.15
69239;BME280;56349;51.816;-0.026;2022-09-02T10:37:04;100731.98;;;28.76;29.11
69239;BME280;56349;51.816;-0.026;2022-09-02T10:39:25;100730.63;;;28.78;29.09
69239;BME280;56349;51.816;-0.026;2022-09-02T10:41:46;100727.10;;;28.81;29.04
69239;BME280;56349;51.816;-0.026;2022-09-02T10:44:24;100717.86;;;29.12;29.01
69239;BME280;56349;51.816;-0.026;2022-09-02T10:46:43;100716.60;;;29.12;28.97
69239;BME280;56349;51.816;-0.026;2022-09-02T10:49:09;100715.26;;;28.88;28.94
69239;BME280;56349;51.816;-0.026;2022-09-02T10:51:35;100710.53;;;28.90;28.90
69239;BME280;56349;51.816;-0.026;2022-09-02T10:54:04;100712.33;;;28.92;28.88
69239;BME280;56349;51.816;-0.026;2022-09-02T10:56:22;100708.02;;;28.93;28.84
69239;BME280;56349;51.816;-0.026;2022-09-02T10:58:50;100703.28;;;28.98;28.82
69239;BME280;56349;51.816;-0.026;2022-09-02T11:01:17;100697.57;;;29.01;28.78
69239;BME280;56349;51.816;-0.026;2022-09-02T11:03:41;100698.58;;;29.31;28.72
69239;BME280;56349;51.816;-0.026;2022-09-02T11:06:06;100690.47;;;28.82;28.73
69239;BME280;56349;51.816;-0.026;2022-09-02T11:08:35;100687.92;;;29.32;28.74
69239;BME280;56349;51.816;-0.026;2022-09-02T11:11:00;100684.82;;;29.06;28.84
69239;BME280;56349;51.816;-0.026;2022-09-02T11:13:23;100685.29;;;29.07;28.89
69239;BME280;56349;51.816;-0.026;2022-09-02T11:15:50;100683.08;;;29.08;28.95
69239;BME280;56349;51.816;-0.026;2022-09-02T11:18:17;100679.61;;;28.88;29.00
69239;BME280;56349;51.816;-0.026;2022-09-02T11:20:42;100679.83;;;29.11;28.99
69239;BME280;56349;51.816;-0.026;2022-09-02T11:23:07;100676.67;;;29.14;29.03
69239;BME280;56349;51.816;-0.026;2022-09-02T11:25:31;100676.66;;;29.18;29.08
69239;BME280;56349;51.816;-0.026;2022-09-02T11:27:58;100674.36;;;29.01;29.02
69239;BME280;56349;51.816;-0.026;2022-09-02T11:30:20;100669.61;;;29.31;28.98
69239;BME280;56349;51.816;-0.026;2022-09-02T11:32:51;100667.21;;;29.35;28.93
69239;BME280;56349;51.816;-0.026;2022-09-02T11:35:13;100664.87;;;29.63;28.97
69239;BME280;56349;51.816;-0.026;2022-09-02T11:37:41;100665.12;;;29.18;28.97
69239;BME280;56349;51.816;-0.026;2022-09-02T11:40:03;100662.99;;;29.21;28.97
69239;BME280;56349;51.816;-0.026;2022-09-02T11:42:37;100665.04;;;29.28;28.95
69239;BME280;56349;51.816;-0.026;2022-09-02T11:49:55;100650.72;;;29.51;28.94
69239;BME280;56349;51.816;-0.026;2022-09-02T11:52:20;100643.91;;;29.22;28.89
69239;BME280;56349;51.816;-0.026;2022-09-02T11:54:35;100643.73;;;29.35;28.85
69239;BME280;56349;51.816;-0.026;2022-09-02T11:57:00;100635.12;;;29.23;28.84
69239;BME280;56349;51.816;-0.026;2022-09-02T12:01:51;100630.29;;;29.18;28.90
69239;BME280;56349;51.816;-0.026;2022-09-02T12:04:21;100628.03;;;29.04;29.02
69239;BME280;56349;51.816;-0.026;2022-09-02T12:09:08;100625.39;;;28.80;29.29
69239;BME280;56349;51.816;-0.026;2022-09-02T12:11:36;100628.17;;;28.47;29.40
69239;BME280;56349;51.816;-0.026;2022-09-02T12:13:58;100625.53;;;28.71;29.52
69239;BME280;56349;51.816;-0.026;2022-09-02T12:16:35;100621.24;;;28.71;29.56
69239;BME280;56349;51.816;-0.026;2022-09-02T12:21:16;100621.48;;;28.75;29.63
69239;BME280;56349;51.816;-0.026;2022-09-02T12:26:08;100613.88;;;28.83;29.54
69239;BME280;56349;51.816;-0.026;2022-09-02T12:28:33;100609.84;;;28.86;29.46
69239;BME280;56349;51.816;-0.026;2022-09-02T12:33:29;100608.52;;;28.88;29.26
69239;BME280;56349;51.816;-0.026;2022-09-02T12:35:57;100606.06;;;28.83;29.24
69239;BME280;56349;51.816;-0.026;2022-09-02T12:38:22;100604.14;;;28.73;29.24
69239;BME280;56349;51.816;-0.026;2022-09-02T12:40:52;100602.77;;;28.65;29.26
69239;BME280;56349;51.816;-0.026;2022-09-02T12:43:16;100602.04;;;28.99;29.32
69239;BME280;56349;51.816;-0.026;2022-09-02T12:45:33;100598.33;;;28.65;29.38
69239;BME280;56349;51.816;-0.026;2022-09-02T12:48:00;100595.36;;;28.75;29.46
69239;BME280;56349;51.816;-0.026;2022-09-02T12:50:26;100593.73;;;28.42;29.51
69239;BME280;56349;51.816;-0.026;2022-09-02T12:52:49;100590.56;;;28.51;29.62
69239;BME280;56349;51.816;-0.026;2022-09-02T12:55:19;100589.90;;;28.37;29.73
69239;BME280;56349;51.816;-0.026;2022-09-02T12:57:42;100590.29;;;28.24;29.84